Terminal Aerodrome Forecast
Issued by NWS North Platte, NE

Home | Current Version | Previous Version | Text Only | Print | Product List | Glossary On
Versions: 1 2 3 4 5 6 7 8 9 10 11 12
000
FTUS43 KLBF 280520
TAFLBF
TAF
KLBF 280520Z 2806/2906 31008KT P6SM SCT015
     FM280800 31006KT P6SM BKN015
     FM281300 32008KT P6SM SCT015
     FM281800 36010KT P6SM SKC=

USA.gov is the U.S. government's official web portal to all federal, state and local government web resources and services.